createdAt,value
2023-02-16T00:02:05.544Z,8.43
2023-02-16T00:07:08.443Z,7.60
2023-02-16T00:12:49.431Z,7.25
2023-02-16T00:18:22.116Z,7.53
2023-02-16T00:23:25.095Z,8.57
2023-02-16T00:28:28.441Z,7.97
2023-02-16T00:33:32.434Z,8.38
2023-02-16T00:38:34.971Z,7.40
2023-02-16T00:43:37.589Z,7.40
2023-02-16T00:48:41.315Z,6.70
2023-02-16T00:53:43.706Z,7.38
2023-02-16T00:58:46.847Z,8.55
2023-02-16T01:03:49.335Z,7.55
2023-02-16T01:09:12.830Z,7.63
2023-02-16T01:14:15.117Z,7.90
2023-02-16T01:19:17.721Z,6.55
2023-02-16T01:24:22.407Z,6.47
2023-02-16T01:29:24.805Z,7.38
2023-02-16T01:34:28.358Z,7.30
2023-02-16T01:39:34.919Z,6.15
2023-02-16T01:44:47.052Z,6.97
2023-02-16T01:49:50.492Z,7.95
2023-02-16T01:55:26.154Z,7.85
2023-02-16T02:00:57.685Z,7.88
2023-02-16T02:06:00.123Z,7.60
2023-02-16T02:11:17.394Z,7.13
2023-02-16T02:16:22.689Z,7.72
2023-02-16T02:22:01.416Z,8.45
2023-02-16T02:27:13.458Z,7.15
2023-02-16T02:32:25.537Z,7.72
2023-02-16T02:37:35.402Z,9.27
2023-02-16T02:42:57.384Z,9.43
2023-02-16T02:48:00.166Z,8.43
2023-02-16T02:53:10.225Z,9.40
2023-02-16T02:58:33.410Z,8.15
2023-02-16T03:03:51.290Z,9.77
2023-02-16T03:09:07.331Z,9.48
2023-02-16T03:14:36.767Z,8.20
2023-02-16T03:20:01.948Z,8.32
2023-02-16T03:25:27.073Z,9.60
2023-02-16T03:30:30.956Z,7.93
2023-02-16T03:35:37.175Z,8.00
2023-02-16T03:40:42.058Z,7.65
2023-02-16T03:45:45.926Z,8.30
2023-02-16T03:50:49.392Z,9.57
2023-02-16T03:55:51.736Z,8.30
2023-02-16T04:00:54.649Z,8.20
2023-02-16T04:05:59.126Z,7.65
2023-02-16T04:11:22.044Z,7.57
2023-02-16T04:16:24.540Z,8.55
2023-02-16T04:21:27.352Z,7.95
2023-02-16T04:26:29.680Z,6.80
2023-02-16T04:31:32.670Z,7.38
2023-02-16T04:36:35.757Z,6.75
2023-02-16T04:41:38.734Z,7.18
2023-02-16T04:46:42.330Z,8.20
2023-02-16T04:51:45.347Z,6.88
2023-02-16T04:56:50.210Z,7.00
2023-02-16T05:01:54.936Z,7.32
2023-02-16T05:06:58.276Z,7.53
2023-02-16T05:12:20.259Z,7.15
2023-02-16T05:17:25.763Z,7.78
2023-02-16T05:22:29.277Z,8.27
2023-02-16T05:27:34.819Z,8.50
2023-02-16T05:32:50.869Z,8.35
2023-02-16T05:37:55.393Z,9.27
2023-02-16T05:42:59.034Z,8.65
2023-02-16T05:48:05.363Z,9.60
2023-02-16T05:53:11.112Z,9.35
2023-02-16T05:58:15.888Z,10.02
2023-02-16T06:03:20.876Z,8.18
2023-02-16T06:08:24.558Z,8.20
2023-02-16T06:13:27.293Z,6.65
2023-02-16T06:18:32.729Z,8.50
2023-02-16T06:23:35.199Z,6.47
2023-02-16T06:28:37.761Z,6.85
2023-02-16T06:33:41.314Z,7.22
2023-02-16T06:38:44.631Z,7.80
2023-02-16T06:43:47.012Z,8.45
2023-02-16T06:48:50.795Z,8.93
2023-02-16T06:54:01.516Z,8.15
2023-02-16T06:59:04.622Z,7.90
2023-02-16T07:04:07.472Z,8.07
2023-02-16T07:09:12.405Z,7.53
2023-02-16T07:14:16.340Z,8.23
2023-02-16T07:19:27.078Z,9.05
2023-02-16T07:24:37.797Z,7.97
2023-02-16T07:29:56.081Z,7.35
2023-02-16T07:35:00.676Z,8.77
2023-02-16T07:40:07.318Z,9.23
2023-02-16T07:45:12.389Z,7.53
2023-02-16T07:50:14.894Z,7.30
2023-02-16T07:55:17.975Z,6.75
2023-02-16T08:00:23.261Z,7.70
2023-02-16T08:05:26.372Z,6.65
2023-02-16T08:10:30.917Z,7.15
2023-02-16T08:15:34.021Z,7.25
2023-02-16T08:20:57.597Z,6.95
2023-02-16T08:26:11.634Z,7.50
2023-02-16T08:31:55.760Z,7.13
2023-02-16T08:42:12.975Z,6.35
2023-02-16T08:47:20.390Z,6.90
2023-02-16T08:52:23.376Z,6.85
2023-02-16T08:57:27.997Z,6.88
2023-02-16T09:02:30.756Z,5.63
2023-02-16T09:07:35.761Z,7.60
2023-02-16T09:12:43.182Z,6.70
2023-02-16T09:17:56.895Z,5.65
2023-02-16T09:23:21.214Z,6.15
2023-02-16T09:28:32.694Z,5.90
2023-02-16T09:33:35.988Z,5.45
2023-02-16T09:38:41.346Z,7.50
2023-02-16T09:43:55.206Z,7.45
2023-02-16T09:54:48.480Z,5.93
2023-02-16T10:00:11.982Z,7.45
2023-02-16T10:05:32.359Z,5.30
2023-02-16T10:11:35.864Z,6.38
2023-02-16T10:17:01.417Z,5.78
2023-02-16T10:46:40.650Z,6.57
2023-02-16T10:51:50.186Z,6.25
2023-02-16T10:56:59.922Z,5.95
2023-02-16T11:02:24.139Z,5.32
2023-02-16T11:07:30.919Z,6.38
2023-02-16T11:12:39.251Z,7.15
2023-02-16T11:17:53.494Z,7.25
2023-02-16T11:23:16.935Z,6.43
2023-02-16T11:28:38.338Z,5.95
2023-02-16T11:33:43.593Z,5.93
2023-02-16T11:39:03.895Z,7.60
2023-02-16T11:44:27.235Z,6.05
2023-02-16T11:49:37.689Z,7.18
2023-02-16T11:54:49.516Z,8.13
2023-02-16T11:59:54.485Z,8.25
2023-02-16T12:05:22.115Z,8.18
2023-02-16T12:10:58.585Z,7.35
2023-02-16T12:16:19.359Z,6.72
2023-02-16T12:21:31.622Z,6.25
2023-02-16T12:26:57.097Z,7.57
2023-02-16T12:32:12.368Z,7.75
2023-02-16T12:37:27.264Z,6.50
2023-02-16T12:42:58.820Z,7.07
2023-02-16T12:48:37.876Z,7.85
2023-02-16T12:54:17.157Z,7.82
2023-02-16T12:59:54.611Z,7.55
2023-02-16T13:05:14.018Z,7.25
2023-02-16T13:10:54.329Z,6.88
2023-02-16T13:16:28.733Z,5.82
2023-02-16T13:27:42.077Z,7.32
2023-02-16T13:32:57.225Z,7.53
2023-02-16T13:38:21.342Z,7.85
2023-02-16T13:43:41.404Z,6.03
2023-02-16T13:48:51.096Z,6.13
2023-02-16T13:54:01.820Z,6.45
2023-02-16T13:59:19.757Z,7.38
2023-02-16T14:04:28.823Z,6.25
2023-02-16T14:09:44.298Z,6.97
2023-02-16T14:15:22.194Z,6.95
2023-02-16T14:20:30.362Z,8.27
2023-02-16T14:25:39.319Z,7.82
2023-02-16T14:30:59.049Z,9.38
2023-02-16T14:41:08.385Z,9.27
2023-02-16T14:46:22.113Z,8.50
2023-02-16T14:51:51.246Z,7.18
2023-02-16T14:57:11.300Z,8.07
2023-02-16T15:02:54.867Z,7.80
2023-02-16T15:08:09.922Z,8.63
2023-02-16T15:13:28.988Z,7.28
2023-02-16T15:18:50.655Z,7.28
2023-02-16T15:23:59.283Z,6.50
2023-02-16T15:29:21.497Z,8.00
2023-02-16T15:34:31.216Z,8.25
2023-02-16T15:39:48.343Z,9.60
2023-02-16T15:44:58.588Z,7.97
2023-02-16T15:50:12.845Z,9.38
2023-02-16T15:55:17.199Z,9.15
2023-02-16T16:00:22.242Z,9.77
2023-02-16T16:05:27.821Z,11.40
2023-02-16T16:10:37.110Z,10.27
2023-02-16T16:15:43.524Z,10.82
2023-02-16T16:20:46.461Z,10.07
2023-02-16T16:25:49.997Z,9.07
2023-02-16T16:31:29.998Z,8.13
2023-02-16T16:36:34.173Z,8.60
2023-02-16T16:41:36.657Z,7.95
2023-02-16T16:46:39.972Z,8.00
2023-02-16T16:51:44.857Z,7.65
2023-02-16T16:56:47.295Z,9.05
2023-02-16T17:01:50.740Z,7.80
2023-02-16T17:06:55.915Z,7.57
2023-02-16T17:11:58.669Z,8.43
2023-02-16T17:17:01.292Z,8.00
2023-02-16T17:22:14.918Z,7.57
2023-02-16T17:27:17.590Z,7.50
2023-02-16T17:32:20.628Z,6.90
2023-02-16T17:37:23.234Z,6.90
2023-02-16T17:42:28.140Z,7.47
2023-02-16T17:47:30.600Z,7.47
2023-02-16T17:52:33.366Z,7.53
2023-02-16T17:57:36.355Z,7.65
2023-02-16T18:02:39.938Z,7.68
2023-02-16T18:07:42.478Z,6.68
2023-02-16T18:12:47.913Z,7.45
2023-02-16T18:17:50.360Z,7.22
2023-02-16T18:22:54.043Z,7.68
2023-02-16T18:27:56.727Z,7.18
2023-02-16T18:33:00.250Z,6.82
2023-02-16T18:38:02.852Z,7.18
2023-02-16T18:43:05.556Z,6.97
2023-02-16T18:48:08.406Z,7.68
2023-02-16T18:53:10.940Z,8.02
2023-02-16T18:58:15.139Z,8.20
2023-02-16T19:03:17.649Z,7.45
2023-02-16T19:08:22.366Z,7.95
2023-02-16T19:13:24.892Z,8.90
2023-02-16T19:18:29.448Z,10.98
2023-02-16T19:23:31.923Z,10.15
2023-02-16T19:28:35.546Z,9.75
2023-02-16T19:33:38.174Z,9.88
2023-02-16T19:38:41.460Z,10.23
2023-02-16T19:43:44.996Z,9.82
2023-02-16T19:48:47.895Z,10.30
2023-02-16T19:53:51.981Z,9.32
2023-02-16T19:58:58.668Z,9.48
2023-02-16T20:04:02.293Z,9.27
2023-02-16T20:09:06.254Z,9.63
2023-02-16T20:14:09.008Z,9.82
2023-02-16T20:19:11.740Z,9.82
2023-02-16T20:24:15.611Z,9.40
2023-02-16T20:29:18.108Z,9.25
2023-02-16T20:34:21.481Z,9.63
2023-02-16T20:39:25.208Z,10.00
2023-02-16T20:44:27.656Z,8.80
2023-02-16T20:49:31.461Z,8.48
2023-02-16T20:54:35.748Z,9.13
2023-02-16T20:59:39.156Z,8.50
2023-02-16T21:04:42.037Z,8.15
2023-02-16T21:09:45.013Z,8.40
2023-02-16T21:14:47.457Z,8.02
2023-02-16T21:19:50.972Z,8.45
2023-02-16T21:24:53.328Z,7.28
2023-02-16T21:29:56.426Z,7.22
2023-02-16T21:34:59.354Z,7.38
2023-02-16T21:40:20.877Z,7.05
2023-02-16T21:45:23.995Z,7.32
2023-02-16T21:50:28.832Z,7.70
2023-02-16T21:55:51.107Z,8.10
2023-02-16T22:00:54.042Z,7.43
2023-02-16T22:05:57.275Z,8.10
2023-02-16T22:11:08.748Z,7.70
2023-02-16T22:16:17.175Z,7.43
2023-02-16T22:21:19.680Z,7.40
2023-02-16T22:26:32.534Z,6.95
2023-02-16T22:31:36.191Z,6.97
2023-02-16T22:36:38.707Z,6.82
2023-02-16T22:41:42.241Z,7.07
2023-02-16T22:46:45.213Z,7.45
2023-02-16T22:51:47.593Z,6.85
2023-02-16T22:56:50.750Z,7.43
2023-02-16T23:01:54.040Z,7.35
2023-02-16T23:06:56.489Z,6.57
2023-02-16T23:11:58.876Z,6.65
2023-02-16T23:17:01.861Z,6.43
2023-02-16T23:22:04.882Z,8.00
2023-02-16T23:27:08.214Z,7.20
2023-02-16T23:32:13.156Z,6.82
2023-02-16T23:37:16.042Z,6.53
2023-02-16T23:42:18.550Z,5.82
2023-02-16T23:47:21.786Z,7.82
2023-02-16T23:52:24.138Z,6.10
2023-02-16T23:57:27.056Z,6.03
